createdAt,value
2023-03-01T00:01:58.834Z,21.40
2023-03-01T00:04:29.044Z,21.40
2023-03-01T00:06:58.218Z,21.40
2023-03-01T00:09:27.209Z,21.40
2023-03-01T00:11:56.390Z,21.30
2023-03-01T00:14:25.184Z,21.30
2023-03-01T00:16:55.758Z,21.30
2023-03-01T00:19:24.566Z,21.30
2023-03-01T00:21:53.683Z,21.30
2023-03-01T00:24:22.433Z,21.30
2023-03-01T00:26:56.301Z,21.30
2023-03-01T00:29:26.035Z,21.40
2023-03-01T00:31:56.473Z,21.40
2023-03-01T00:34:25.318Z,21.40
2023-03-01T00:36:54.399Z,21.40
2023-03-01T00:39:23.168Z,21.40
2023-03-01T00:41:52.295Z,21.40
2023-03-01T00:44:21.058Z,21.40
2023-03-01T00:46:50.275Z,21.40
2023-03-01T00:49:20.423Z,21.40
2023-03-01T00:51:49.508Z,21.40
2023-03-01T00:54:18.407Z,21.40
2023-03-01T00:56:47.601Z,21.40
2023-03-01T00:59:16.396Z,21.40
2023-03-01T01:01:45.524Z,21.40
2023-03-01T01:04:15.652Z,21.40
2023-03-01T01:06:49.060Z,21.40
2023-03-01T01:09:19.970Z,21.40
2023-03-01T01:11:52.475Z,21.40
2023-03-01T01:14:22.368Z,21.40
2023-03-01T01:16:52.185Z,21.40
2023-03-01T01:19:21.392Z,21.40
2023-03-01T01:21:52.678Z,21.40
2023-03-01T01:24:21.827Z,21.30
2023-03-01T01:26:51.570Z,21.30
2023-03-01T01:29:20.447Z,21.30
2023-03-01T01:31:49.650Z,21.40
2023-03-01T01:34:22.399Z,21.30
2023-03-01T01:36:55.679Z,21.40
2023-03-01T01:39:24.950Z,21.40
2023-03-01T01:41:54.080Z,21.40
2023-03-01T01:44:27.001Z,21.40
2023-03-01T01:47:00.733Z,21.40
2023-03-01T01:49:37.592Z,21.40
2023-03-01T01:52:15.717Z,21.40
2023-03-01T01:54:52.499Z,21.40
2023-03-01T01:57:27.740Z,21.40
2023-03-01T02:00:05.269Z,21.40
2023-03-01T02:02:44.938Z,21.40
2023-03-01T02:05:19.898Z,21.40
2023-03-01T02:07:51.065Z,21.40
2023-03-01T02:10:23.544Z,21.50
2023-03-01T02:12:54.097Z,21.50
2023-03-01T02:15:23.650Z,21.50
2023-03-01T02:17:54.391Z,21.50
2023-03-01T02:20:34.747Z,21.60
2023-03-01T02:23:06.817Z,21.60
2023-03-01T02:25:48.708Z,21.60
2023-03-01T02:28:31.531Z,21.60
2023-03-01T02:31:20.536Z,21.60
2023-03-01T02:33:50.444Z,21.50
2023-03-01T02:36:25.821Z,21.60
2023-03-01T02:39:00.378Z,21.60
2023-03-01T02:41:34.487Z,21.50
2023-03-01T02:44:05.343Z,21.60
2023-03-01T02:46:34.452Z,21.50
2023-03-01T02:49:03.676Z,21.50
2023-03-01T02:51:57.925Z,21.50
2023-03-01T02:54:35.532Z,21.50
2023-03-01T02:57:05.307Z,21.50
2023-03-01T02:59:41.845Z,21.50
2023-03-01T03:02:36.984Z,21.50
2023-03-01T03:05:31.676Z,21.50
2023-03-01T03:08:02.950Z,21.60
2023-03-01T03:10:40.553Z,21.60
2023-03-01T03:13:12.325Z,21.60
2023-03-01T03:15:45.214Z,21.60
2023-03-01T03:18:18.420Z,21.60
2023-03-01T03:20:48.715Z,21.60
2023-03-01T03:23:17.481Z,21.60
2023-03-01T03:25:46.643Z,21.60
2023-03-01T03:28:16.901Z,21.60
2023-03-01T03:30:47.823Z,21.60
2023-03-01T03:33:16.737Z,21.60
2023-03-01T03:35:49.817Z,21.60
2023-03-01T03:38:22.945Z,21.60
2023-03-01T03:41:03.323Z,21.60
2023-03-01T03:43:34.834Z,21.60
2023-03-01T03:46:07.132Z,21.60
2023-03-01T03:48:38.129Z,21.50
2023-03-01T03:51:07.816Z,21.50
2023-03-01T03:53:36.814Z,21.50
2023-03-01T03:56:07.065Z,21.60
2023-03-01T03:58:36.280Z,21.50
2023-03-01T04:01:07.603Z,21.60
2023-03-01T04:03:37.082Z,21.60
2023-03-01T04:06:07.110Z,21.60
2023-03-01T04:08:35.893Z,21.60
2023-03-01T04:11:21.666Z,21.60
2023-03-01T04:13:51.566Z,21.60
2023-03-01T04:16:22.603Z,21.70
2023-03-01T04:18:51.644Z,21.70
2023-03-01T04:21:21.326Z,21.70
2023-03-01T04:23:53.540Z,21.70
2023-03-01T04:26:23.231Z,21.70
2023-03-01T04:28:51.998Z,21.80
2023-03-01T04:31:23.440Z,21.80
2023-03-01T04:33:55.523Z,21.80
2023-03-01T04:36:27.774Z,21.80
2023-03-01T04:38:57.976Z,21.80
2023-03-01T04:41:27.915Z,21.80
2023-03-01T04:43:56.680Z,21.80
2023-03-01T04:46:27.470Z,21.80
2023-03-01T04:48:56.289Z,21.90
2023-03-01T04:51:25.435Z,21.90
2023-03-01T04:53:54.235Z,21.90
2023-03-01T04:56:24.015Z,21.90
2023-03-01T04:58:56.023Z,21.90
2023-03-01T05:01:26.484Z,21.90
2023-03-01T05:03:55.655Z,21.90
2023-03-01T05:06:24.692Z,21.90
2023-03-01T05:08:53.462Z,21.90
2023-03-01T05:11:22.524Z,21.90
2023-03-01T05:13:55.962Z,21.90
2023-03-01T05:16:26.553Z,21.90
2023-03-01T05:18:56.550Z,21.90
2023-03-01T05:21:25.925Z,21.90
2023-03-01T05:23:54.754Z,21.90
2023-03-01T05:26:29.655Z,21.90
2023-03-01T05:29:00.244Z,21.90
2023-03-01T05:31:31.884Z,21.90
2023-03-01T05:34:00.986Z,21.90
2023-03-01T05:36:30.450Z,21.90
2023-03-01T05:38:59.516Z,21.90
2023-03-01T05:41:29.001Z,22.00
2023-03-01T05:43:57.778Z,22.00
2023-03-01T05:46:26.827Z,22.00
2023-03-01T05:48:57.188Z,22.00
2023-03-01T05:51:27.166Z,22.00
2023-03-01T05:53:55.929Z,22.00
2023-03-01T05:56:25.020Z,22.00
2023-03-01T05:58:53.887Z,22.00
2023-03-01T06:01:23.010Z,22.10
2023-03-01T06:03:51.787Z,22.10
2023-03-01T06:06:22.225Z,22.10
2023-03-01T06:08:51.244Z,22.10
2023-03-01T06:11:20.489Z,22.10
2023-03-01T06:13:49.514Z,22.10
2023-03-01T06:16:18.639Z,22.10
2023-03-01T06:18:47.471Z,22.20
2023-03-01T06:21:16.667Z,22.20
2023-03-01T06:23:46.816Z,22.20
2023-03-01T06:26:16.004Z,22.20
2023-03-01T06:28:47.161Z,22.20
2023-03-01T06:31:16.692Z,22.30
2023-03-01T06:33:46.083Z,22.30
2023-03-01T06:36:15.310Z,22.30
2023-03-01T06:38:44.245Z,22.40
2023-03-01T06:41:14.788Z,22.40
2023-03-01T06:43:43.718Z,22.40
2023-03-01T06:46:12.805Z,22.50
2023-03-01T06:48:41.944Z,22.50
2023-03-01T06:51:10.981Z,22.50
2023-03-01T06:53:39.860Z,22.50
2023-03-01T06:56:09.164Z,22.60
2023-03-01T06:58:39.319Z,22.60
2023-03-01T07:01:09.404Z,22.60
2023-03-01T07:03:38.201Z,22.60
2023-03-01T07:06:07.867Z,22.70
2023-03-01T07:08:36.657Z,22.70
2023-03-01T07:11:06.790Z,22.80
2023-03-01T07:13:35.639Z,22.80
2023-03-01T07:16:07.089Z,22.80
2023-03-01T07:18:36.004Z,22.90
2023-03-01T07:21:09.256Z,22.90
2023-03-01T07:23:38.141Z,23.00
2023-03-01T07:26:07.831Z,23.00
2023-03-01T07:28:39.639Z,23.10
2023-03-01T07:31:10.144Z,23.10
2023-03-01T07:33:38.951Z,23.20
2023-03-01T07:36:09.245Z,23.20
2023-03-01T07:38:38.107Z,23.30
2023-03-01T07:41:07.926Z,23.30
2023-03-01T07:43:36.896Z,23.40
2023-03-01T07:46:07.213Z,23.50
2023-03-01T07:48:37.567Z,23.50
2023-03-01T07:51:08.906Z,23.60
2023-03-01T07:53:37.867Z,23.70
2023-03-01T07:56:09.813Z,23.70
2023-03-01T07:58:41.540Z,23.80
2023-03-01T08:01:13.975Z,23.80
2023-03-01T08:03:44.688Z,23.90
2023-03-01T08:06:16.785Z,23.90
2023-03-01T08:08:46.511Z,23.90
2023-03-01T08:11:17.460Z,23.90
2023-03-01T08:13:51.446Z,24.00
2023-03-01T08:16:21.862Z,24.10
2023-03-01T08:18:52.076Z,24.20
2023-03-01T08:21:21.610Z,24.30
2023-03-01T08:23:50.469Z,24.30
2023-03-01T08:26:21.891Z,24.40
2023-03-01T08:28:52.200Z,24.40
2023-03-01T08:31:24.343Z,24.60
2023-03-01T08:33:58.882Z,24.70
2023-03-01T08:36:31.127Z,24.80
2023-03-01T08:39:00.833Z,24.90
2023-03-01T08:41:30.443Z,25.00
2023-03-01T08:44:00.596Z,25.10
2023-03-01T08:46:32.509Z,25.20
2023-03-01T08:49:05.387Z,25.30
2023-03-01T08:51:37.699Z,25.30
2023-03-01T08:54:07.711Z,25.30
2023-03-01T08:56:36.897Z,25.40
2023-03-01T08:59:06.234Z,25.50
2023-03-01T09:01:35.668Z,25.50
2023-03-01T09:04:06.479Z,25.60
2023-03-01T09:06:36.389Z,25.60
2023-03-01T09:09:07.272Z,25.70
2023-03-01T09:11:36.400Z,25.70
2023-03-01T09:14:08.358Z,25.70
2023-03-01T09:16:37.627Z,25.80
2023-03-01T09:19:07.834Z,25.90
2023-03-01T09:21:40.454Z,26.10
2023-03-01T09:24:16.578Z,26.20
2023-03-01T09:26:48.876Z,26.30
2023-03-01T09:29:19.012Z,26.50
2023-03-01T09:31:48.358Z,26.60
2023-03-01T09:34:24.063Z,26.70
2023-03-01T09:36:53.270Z,26.80
2023-03-01T09:39:22.901Z,26.90
2023-03-01T09:42:03.202Z,27.00
2023-03-01T09:44:42.351Z,27.10
2023-03-01T09:47:20.586Z,27.10
2023-03-01T09:50:02.411Z,27.00
2023-03-01T09:52:42.960Z,27.00
2023-03-01T09:55:16.235Z,27.00
2023-03-01T09:57:54.606Z,27.00
2023-03-01T10:00:39.000Z,26.90
2023-03-01T10:03:19.041Z,27.00
2023-03-01T10:06:02.039Z,27.00
2023-03-01T10:08:44.483Z,27.20
2023-03-01T10:11:25.364Z,27.30
2023-03-01T10:14:05.373Z,27.40
2023-03-01T10:16:48.913Z,27.60
2023-03-01T10:19:30.448Z,27.70
2023-03-01T10:22:06.311Z,27.80
2023-03-01T10:24:39.012Z,28.00
2023-03-01T10:27:19.564Z,28.10
2023-03-01T10:29:57.360Z,28.20
2023-03-01T10:32:27.119Z,28.30
2023-03-01T10:34:56.404Z,28.40
2023-03-01T10:37:28.360Z,28.50
2023-03-01T10:40:00.744Z,28.60
2023-03-01T10:42:33.686Z,28.60
2023-03-01T10:45:28.091Z,28.80
2023-03-01T10:48:12.761Z,28.90
2023-03-01T10:50:43.834Z,29.10
2023-03-01T10:53:31.784Z,29.30
2023-03-01T10:56:05.920Z,29.40
2023-03-01T10:58:36.889Z,29.60
2023-03-01T11:01:08.751Z,29.70
2023-03-01T11:03:40.009Z,30.00
2023-03-01T11:06:24.237Z,30.10
2023-03-01T11:08:55.201Z,30.20
2023-03-01T11:11:34.155Z,30.30
2023-03-01T11:14:25.126Z,30.40
2023-03-01T11:17:04.655Z,30.40
2023-03-01T11:19:34.900Z,30.50
2023-03-01T11:22:14.099Z,30.50
2023-03-01T11:25:00.101Z,30.50
2023-03-01T11:27:44.004Z,30.70
2023-03-01T11:30:22.628Z,30.80
2023-03-01T11:33:07.384Z,31.00
2023-03-01T11:35:44.297Z,31.10
2023-03-01T11:38:24.357Z,31.20
2023-03-01T11:41:03.920Z,31.40
2023-03-01T11:43:46.963Z,31.50
2023-03-01T11:46:49.742Z,31.60
2023-03-01T11:50:06.304Z,31.70
2023-03-01T11:52:51.132Z,31.70
2023-03-01T11:55:53.997Z,31.70
2023-03-01T11:59:05.229Z,31.60
2023-03-01T12:01:53.966Z,31.50
2023-03-01T12:04:55.224Z,31.60
2023-03-01T12:07:38.635Z,31.60
2023-03-01T12:10:26.154Z,31.60
2023-03-01T12:13:25.842Z,31.70
2023-03-01T12:16:38.331Z,31.80
2023-03-01T12:19:36.757Z,31.90
2023-03-01T12:22:27.266Z,31.90
2023-03-01T12:25:23.000Z,31.90
2023-03-01T12:28:25.179Z,32.00
2023-03-01T12:31:18.924Z,32.00
2023-03-01T12:34:03.779Z,32.00
2023-03-01T12:37:13.434Z,31.90
2023-03-01T12:39:59.768Z,31.70
2023-03-01T12:42:41.528Z,31.30
2023-03-01T12:45:43.603Z,30.80
2023-03-01T12:48:36.488Z,30.40
2023-03-01T12:51:12.871Z,30.00
2023-03-01T12:53:47.397Z,29.70
2023-03-01T12:56:22.155Z,29.40
2023-03-01T12:59:06.205Z,29.20
2023-03-01T13:01:49.142Z,29.00
2023-03-01T13:04:42.551Z,28.90
2023-03-01T13:07:27.071Z,28.70
2023-03-01T13:10:16.469Z,28.60
2023-03-01T13:12:55.392Z,28.50
2023-03-01T13:15:30.461Z,28.40
2023-03-01T13:18:01.567Z,28.30
2023-03-01T13:20:47.860Z,28.30
2023-03-01T13:23:29.182Z,28.20
2023-03-01T13:26:15.873Z,28.20
2023-03-01T13:29:02.523Z,28.10
2023-03-01T13:32:05.735Z,28.00
2023-03-01T13:35:01.903Z,28.00
2023-03-01T13:37:36.985Z,28.00
2023-03-01T13:41:01.273Z,28.00
2023-03-01T13:43:34.648Z,28.00
2023-03-01T13:46:12.237Z,28.00
2023-03-01T13:48:42.424Z,28.00
2023-03-01T13:51:14.535Z,28.00
2023-03-01T13:53:49.769Z,28.00
2023-03-01T13:56:24.002Z,27.90
2023-03-01T13:58:57.135Z,28.00
2023-03-01T14:01:31.520Z,27.90
2023-03-01T14:04:02.255Z,27.90
2023-03-01T14:06:33.772Z,27.90
2023-03-01T14:09:16.910Z,27.90
2023-03-01T14:12:25.483Z,27.90
2023-03-01T14:15:04.566Z,27.90
2023-03-01T14:18:01.709Z,27.90
2023-03-01T14:20:36.431Z,27.90
2023-03-01T14:23:15.213Z,27.90
2023-03-01T14:25:53.177Z,27.90
2023-03-01T14:28:27.348Z,27.90
2023-03-01T14:30:58.871Z,27.90
2023-03-01T14:33:31.107Z,27.90
2023-03-01T14:36:07.164Z,27.90
2023-03-01T14:38:38.599Z,27.90
2023-03-01T14:41:12.341Z,27.80
2023-03-01T14:43:47.972Z,27.80
2023-03-01T14:46:24.266Z,27.80
2023-03-01T14:48:55.400Z,27.80
2023-03-01T14:51:25.338Z,27.80
2023-03-01T14:53:54.868Z,27.80
2023-03-01T14:56:25.302Z,27.80
2023-03-01T14:58:55.144Z,27.80
2023-03-01T15:01:24.568Z,27.80
2023-03-01T15:03:56.740Z,27.80
2023-03-01T15:06:26.411Z,27.80
2023-03-01T15:08:58.297Z,27.80
2023-03-01T15:11:32.978Z,27.70
2023-03-01T15:14:02.178Z,27.70
2023-03-01T15:16:35.609Z,27.70
2023-03-01T15:19:07.848Z,27.70
2023-03-01T15:21:39.957Z,27.60
2023-03-01T15:24:21.426Z,27.60
2023-03-01T15:27:02.997Z,27.50
2023-03-01T15:29:39.142Z,27.50
2023-03-01T15:32:27.945Z,27.50
2023-03-01T15:34:57.138Z,27.40
2023-03-01T15:37:49.602Z,27.40
2023-03-01T15:40:25.846Z,27.30
2023-03-01T15:42:57.376Z,27.40
2023-03-01T15:45:29.787Z,27.30
2023-03-01T15:48:05.487Z,27.30
2023-03-01T15:50:40.967Z,27.30
2023-03-01T15:53:15.916Z,27.20
2023-03-01T15:55:44.934Z,27.20
2023-03-01T15:58:19.934Z,27.10
2023-03-01T16:01:00.730Z,27.10
2023-03-01T16:03:31.129Z,27.00
2023-03-01T16:05:59.970Z,27.00
2023-03-01T16:08:29.163Z,26.90
2023-03-01T16:10:58.857Z,26.90
2023-03-01T16:13:29.552Z,26.80
2023-03-01T16:15:58.398Z,26.80
2023-03-01T16:18:27.549Z,26.80
2023-03-01T16:20:56.348Z,26.70
2023-03-01T16:23:26.034Z,26.70
2023-03-01T16:25:54.810Z,26.60
2023-03-01T16:28:23.997Z,26.60
2023-03-01T16:30:54.704Z,26.50
2023-03-01T16:33:30.604Z,26.40
2023-03-01T16:36:04.070Z,26.40
2023-03-01T16:38:35.713Z,26.40
2023-03-01T16:41:04.736Z,26.30
2023-03-01T16:43:34.143Z,26.30
2023-03-01T16:46:12.390Z,26.30
2023-03-01T16:48:41.676Z,26.30
2023-03-01T16:51:11.048Z,26.20
2023-03-01T16:53:41.959Z,26.20
2023-03-01T16:56:14.077Z,26.20
2023-03-01T16:58:43.994Z,26.20
2023-03-01T17:01:17.822Z,26.10
2023-03-01T17:03:49.768Z,26.10
2023-03-01T17:06:24.545Z,26.10
2023-03-01T17:08:53.665Z,26.10
2023-03-01T17:11:22.842Z,26.10
2023-03-01T17:13:51.948Z,26.10
2023-03-01T17:16:23.472Z,26.10
2023-03-01T17:18:52.789Z,26.10
2023-03-01T17:21:22.525Z,26.10
2023-03-01T17:23:52.998Z,26.00
2023-03-01T17:26:21.847Z,26.00
2023-03-01T17:28:52.361Z,26.00
2023-03-01T17:31:23.806Z,25.90
2023-03-01T17:33:52.976Z,26.00
2023-03-01T17:36:21.900Z,25.90
2023-03-01T17:38:51.062Z,25.90
2023-03-01T17:41:21.891Z,25.90
2023-03-01T17:43:51.053Z,25.80
2023-03-01T17:46:19.907Z,25.80
2023-03-01T17:48:50.958Z,25.70
2023-03-01T17:51:19.863Z,25.70
2023-03-01T17:53:49.171Z,25.70
2023-03-01T17:56:18.446Z,25.60
2023-03-01T17:58:47.742Z,25.50
2023-03-01T18:01:20.662Z,25.50
2023-03-01T18:03:53.024Z,25.40
2023-03-01T18:06:25.113Z,25.40
2023-03-01T18:08:55.235Z,25.40
2023-03-01T18:11:26.333Z,25.30
2023-03-01T18:13:56.287Z,25.20
2023-03-01T18:16:25.522Z,25.20
2023-03-01T18:18:58.413Z,25.10
2023-03-01T18:21:27.674Z,25.10
2023-03-01T18:23:56.991Z,25.10
2023-03-01T18:26:27.720Z,24.90
2023-03-01T18:29:01.250Z,24.90
2023-03-01T18:31:33.437Z,24.90
2023-03-01T18:34:04.743Z,24.80
2023-03-01T18:36:36.708Z,24.70
2023-03-01T18:39:08.916Z,24.70
2023-03-01T18:41:38.666Z,24.60
2023-03-01T18:44:08.376Z,24.60
2023-03-01T18:46:39.098Z,24.50
2023-03-01T18:49:10.228Z,24.50
2023-03-01T18:51:39.072Z,24.40
2023-03-01T18:54:08.462Z,24.40
2023-03-01T18:56:37.253Z,24.40
2023-03-01T18:59:06.462Z,24.30
2023-03-01T19:01:37.526Z,24.30
2023-03-01T19:04:09.174Z,24.30
2023-03-01T19:06:40.156Z,24.30
2023-03-01T19:09:11.432Z,24.30
2023-03-01T19:11:40.707Z,24.20
2023-03-01T19:14:09.807Z,24.20
2023-03-01T19:16:38.997Z,24.20
2023-03-01T19:19:10.133Z,24.20
2023-03-01T19:21:40.401Z,24.20
2023-03-01T19:24:11.084Z,24.10
2023-03-01T19:26:41.813Z,24.10
2023-03-01T19:29:11.694Z,24.10
2023-03-01T19:31:40.649Z,24.10
2023-03-01T19:34:11.899Z,24.00
2023-03-01T19:36:44.519Z,24.00
2023-03-01T19:39:15.468Z,24.00
2023-03-01T19:41:46.113Z,24.00
2023-03-01T19:44:16.922Z,24.00
2023-03-01T19:46:45.784Z,24.00
2023-03-01T19:49:15.058Z,23.90
2023-03-01T19:51:45.258Z,23.90
2023-03-01T19:54:14.867Z,23.90
2023-03-01T19:56:43.693Z,23.90
2023-03-01T19:59:12.813Z,23.80
2023-03-01T20:01:43.321Z,23.80
2023-03-01T20:04:13.967Z,23.80
2023-03-01T20:06:46.610Z,23.80
2023-03-01T20:09:21.773Z,23.70
2023-03-01T20:11:51.899Z,23.80
2023-03-01T20:14:23.913Z,23.70
2023-03-01T20:16:53.988Z,23.70
2023-03-01T20:19:23.618Z,23.70
2023-03-01T20:21:53.850Z,23.70
2023-03-01T20:24:22.940Z,23.70
2023-03-01T20:26:51.804Z,23.70
2023-03-01T20:29:21.808Z,23.60
2023-03-01T20:31:50.819Z,23.60
2023-03-01T20:34:20.021Z,23.60
2023-03-01T20:36:49.245Z,23.60
2023-03-01T20:39:19.804Z,23.60
2023-03-01T20:41:48.674Z,23.50
2023-03-01T20:44:17.742Z,23.50
2023-03-01T20:46:46.795Z,23.50
2023-03-01T20:49:16.534Z,23.40
2023-03-01T20:51:45.428Z,23.40
2023-03-01T20:54:14.847Z,23.40
2023-03-01T20:56:45.030Z,23.40
2023-03-01T20:59:15.056Z,23.40
2023-03-01T21:01:43.944Z,23.40
2023-03-01T21:04:13.232Z,23.40
2023-03-01T21:06:42.965Z,23.40
2023-03-01T21:09:13.226Z,23.40
2023-03-01T21:11:42.071Z,23.40
2023-03-01T21:14:13.201Z,23.40
2023-03-01T21:16:42.070Z,23.40
2023-03-01T21:19:11.179Z,23.40
2023-03-01T21:21:40.018Z,23.40
2023-03-01T21:24:10.553Z,23.40
2023-03-01T21:26:39.765Z,23.40
2023-03-01T21:29:08.815Z,23.40
2023-03-01T21:31:39.028Z,23.40
2023-03-01T21:34:08.221Z,23.30
2023-03-01T21:36:37.292Z,23.30
2023-03-01T21:39:08.106Z,23.30
2023-03-01T21:41:38.826Z,23.30
2023-03-01T21:44:08.531Z,23.30
2023-03-01T21:46:40.628Z,23.30
2023-03-01T21:49:12.532Z,23.30
2023-03-01T21:51:41.686Z,23.30
2023-03-01T21:54:15.234Z,23.20
2023-03-01T21:56:46.281Z,23.20
2023-03-01T21:59:18.926Z,23.20
2023-03-01T22:01:50.424Z,23.20
2023-03-01T22:04:21.481Z,23.20
2023-03-01T22:06:54.364Z,23.20
2023-03-01T22:09:25.107Z,23.20
2023-03-01T22:11:58.731Z,23.20
2023-03-01T22:14:27.879Z,23.20
2023-03-01T22:16:59.064Z,23.20
2023-03-01T22:19:28.846Z,23.10
2023-03-01T22:21:57.688Z,23.10
2023-03-01T22:24:27.257Z,23.10
2023-03-01T22:26:56.333Z,23.10
2023-03-01T22:29:30.106Z,23.10
2023-03-01T22:32:00.985Z,23.10
2023-03-01T22:34:30.750Z,23.00
2023-03-01T22:36:59.742Z,23.00
2023-03-01T22:39:29.157Z,23.00
2023-03-01T22:41:57.943Z,23.00
2023-03-01T22:44:27.108Z,23.00
2023-03-01T22:46:55.940Z,23.00
2023-03-01T22:49:26.474Z,23.00
2023-03-01T22:51:55.293Z,22.90
2023-03-01T22:54:24.334Z,22.90
2023-03-01T22:56:53.659Z,22.90
2023-03-01T22:59:24.176Z,22.90
2023-03-01T23:01:54.728Z,22.90
2023-03-01T23:04:26.085Z,22.90
2023-03-01T23:06:54.935Z,22.90
2023-03-01T23:09:27.737Z,22.90
2023-03-01T23:11:57.672Z,22.90
2023-03-01T23:14:30.079Z,22.80
2023-03-01T23:17:00.737Z,22.80
2023-03-01T23:19:32.129Z,22.80
2023-03-01T23:22:01.465Z,22.80
2023-03-01T23:24:32.468Z,22.80
2023-03-01T23:27:03.256Z,22.80
2023-03-01T23:29:33.157Z,22.80
2023-03-01T23:32:02.890Z,22.80
2023-03-01T23:34:33.468Z,22.80
2023-03-01T23:37:03.333Z,22.80
2023-03-01T23:39:33.322Z,22.80
2023-03-01T23:42:02.124Z,22.80
2023-03-01T23:44:31.261Z,22.80
2023-03-01T23:47:01.030Z,22.80
2023-03-01T23:49:30.370Z,22.80
2023-03-01T23:52:01.520Z,22.80
2023-03-01T23:54:30.736Z,22.80
2023-03-01T23:56:59.663Z,22.70
2023-03-01T23:59:28.786Z,22.70
